sensor_id;sensor_type;location;lat;lon;timestamp;pressure;altitude;pressure_sealevel;temperature;humidity
75383;BME280;77049;52.132;5.426;2024-03-25T00:00:58;100734.03;;;5.29;100.00
75383;BME280;77049;52.132;5.426;2024-03-25T00:03:23;100735.25;;;5.25;100.00
75383;BME280;77049;52.132;5.426;2024-03-25T00:05:50;100738.28;;;5.23;100.00
75383;BME280;77049;52.132;5.426;2024-03-25T00:08:16;100738.63;;;5.25;100.00
75383;BME280;77049;52.132;5.426;2024-03-25T00:10:41;100734.50;;;5.24;100.00
75383;BME280;77049;52.132;5.426;2024-03-25T00:13:07;100733.41;;;5.22;100.00
75383;BME280;77049;52.132;5.426;2024-03-25T00:15:32;100737.53;;;5.23;100.00
75383;BME280;77049;52.132;5.426;2024-03-25T00:17:59;100734.91;;;5.23;100.00
75383;BME280;77049;52.132;5.426;2024-03-25T00:20:25;100737.53;;;5.23;100.00
75383;BME280;77049;52.132;5.426;2024-03-25T00:22:51;100736.06;;;5.22;100.00
75383;BME280;77049;52.132;5.426;2024-03-25T00:25:18;100736.94;;;5.15;100.00
75383;BME280;77049;52.132;5.426;2024-03-25T00:27:44;100735.03;;;5.16;100.00
75383;BME280;77049;52.132;5.426;2024-03-25T00:30:11;100729.81;;;5.12;100.00
75383;BME280;77049;52.132;5.426;2024-03-25T00:32:37;100727.94;;;5.13;100.00
75383;BME280;77049;52.132;5.426;2024-03-25T00:35:02;100720.41;;;5.11;100.00
75383;BME280;77049;52.132;5.426;2024-03-25T00:37:29;100722.31;;;5.11;100.00
75383;BME280;77049;52.132;5.426;2024-03-25T00:39:55;100723.78;;;5.12;100.00
75383;BME280;77049;52.132;5.426;2024-03-25T00:42:21;100727.97;;;5.09;100.00
75383;BME280;77049;52.132;5.426;2024-03-25T00:44:46;100728.38;;;5.08;100.00
75383;BME280;77049;52.132;5.426;2024-03-25T00:47:12;100726.94;;;5.03;100.00
75383;BME280;77049;52.132;5.426;2024-03-25T00:49:38;100725.84;;;5.00;100.00
75383;BME280;77049;52.132;5.426;2024-03-25T00:52:04;100717.59;;;4.98;100.00
75383;BME280;77049;52.132;5.426;2024-03-25T00:54:30;100716.44;;;4.99;100.00
75383;BME280;77049;52.132;5.426;2024-03-25T00:56:56;100717.25;;;4.96;100.00
75383;BME280;77049;52.132;5.426;2024-03-25T00:59:22;100725.97;;;4.93;100.00
75383;BME280;77049;52.132;5.426;2024-03-25T01:01:47;100720.72;;;4.90;100.00
75383;BME280;77049;52.132;5.426;2024-03-25T01:04:13;100727.56;;;4.87;100.00
75383;BME280;77049;52.132;5.426;2024-03-25T01:06:39;100732.09;;;4.87;100.00
75383;BME280;77049;52.132;5.426;2024-03-25T01:09:04;100732.47;;;4.85;100.00
75383;BME280;77049;52.132;5.426;2024-03-25T01:11:30;100731.78;;;4.81;100.00
75383;BME280;77049;52.132;5.426;2024-03-25T01:13:56;100733.41;;;4.75;100.00
75383;BME280;77049;52.132;5.426;2024-03-25T01:16:22;100724.75;;;4.75;100.00
75383;BME280;77049;52.132;5.426;2024-03-25T01:18:47;100730.03;;;4.75;100.00
75383;BME280;77049;52.132;5.426;2024-03-25T01:21:13;100730.41;;;4.73;100.00
75383;BME280;77049;52.132;5.426;2024-03-25T01:23:40;100725.94;;;4.70;100.00
75383;BME280;77049;52.132;5.426;2024-03-25T01:26:06;100732.34;;;4.69;100.00
75383;BME280;77049;52.132;5.426;2024-03-25T01:28:32;100731.63;;;4.68;100.00
75383;BME280;77049;52.132;5.426;2024-03-25T01:30:57;100731.66;;;4.65;100.00
75383;BME280;77049;52.132;5.426;2024-03-25T01:33:23;100726.03;;;4.63;100.00
75383;BME280;77049;52.132;5.426;2024-03-25T01:35:49;100736.63;;;4.59;100.00
75383;BME280;77049;52.132;5.426;2024-03-25T01:38:15;100733.25;;;4.59;100.00
75383;BME280;77049;52.132;5.426;2024-03-25T01:40:41;100733.66;;;4.57;100.00
75383;BME280;77049;52.132;5.426;2024-03-25T01:43:07;100735.53;;;4.57;100.00
75383;BME280;77049;52.132;5.426;2024-03-25T01:45:34;100728.81;;;4.52;100.00
75383;BME280;77049;52.132;5.426;2024-03-25T01:48:08;100735.97;;;4.52;100.00
75383;BME280;77049;52.132;5.426;2024-03-25T01:50:44;100732.28;;;4.46;100.00
75383;BME280;77049;52.132;5.426;2024-03-25T01:53:12;100730.78;;;4.45;100.00
75383;BME280;77049;52.132;5.426;2024-03-25T01:55:39;100740.19;;;4.46;100.00
75383;BME280;77049;52.132;5.426;2024-03-25T01:58:08;100734.94;;;4.46;100.00
75383;BME280;77049;52.132;5.426;2024-03-25T02:00:34;100733.09;;;4.43;100.00
75383;BME280;77049;52.132;5.426;2024-03-25T02:03:00;100738.00;;;4.41;100.00
75383;BME280;77049;52.132;5.426;2024-03-25T02:05:26;100738.06;;;4.37;100.00
75383;BME280;77049;52.132;5.426;2024-03-25T02:07:53;100741.47;;;4.38;100.00
75383;BME280;77049;52.132;5.426;2024-03-25T02:10:19;100737.72;;;4.35;100.00
75383;BME280;77049;52.132;5.426;2024-03-25T02:12:46;100738.91;;;4.30;100.00
75383;BME280;77049;52.132;5.426;2024-03-25T02:15:13;100735.16;;;4.28;100.00
75383;BME280;77049;52.132;5.426;2024-03-25T02:17:39;100735.91;;;4.28;100.00
75383;BME280;77049;52.132;5.426;2024-03-25T02:20:06;100738.94;;;4.27;100.00
75383;BME280;77049;52.132;5.426;2024-03-25T02:22:34;100745.34;;;4.26;100.00
75383;BME280;77049;52.132;5.426;2024-03-25T02:25:06;100740.09;;;4.26;100.00
75383;BME280;77049;52.132;5.426;2024-03-25T02:27:32;100741.28;;;4.21;100.00
75383;BME280;77049;52.132;5.426;2024-03-25T02:30:08;100736.03;;;4.18;100.00
75383;BME280;77049;52.132;5.426;2024-03-25T02:32:35;100737.53;;;4.19;100.00
75383;BME280;77049;52.132;5.426;2024-03-25T02:35:02;100739.78;;;4.20;100.00
75383;BME280;77049;52.132;5.426;2024-03-25T02:37:29;100741.34;;;4.14;100.00
75383;BME280;77049;52.132;5.426;2024-03-25T02:39:57;100741.00;;;4.12;100.00
75383;BME280;77049;52.132;5.426;2024-03-25T02:42:25;100739.06;;;4.16;100.00
75383;BME280;77049;52.132;5.426;2024-03-25T02:44:53;100740.22;;;4.15;100.00
75383;BME280;77049;52.132;5.426;2024-03-25T02:47:19;100738.75;;;4.11;100.00
75383;BME280;77049;52.132;5.426;2024-03-25T02:49:45;100735.38;;;4.10;100.00
75383;BME280;77049;52.132;5.426;2024-03-25T02:52:11;100737.25;;;4.10;100.00
75383;BME280;77049;52.132;5.426;2024-03-25T02:54:37;100739.50;;;4.11;100.00
75383;BME280;77049;52.132;5.426;2024-03-25T02:57:02;100738.72;;;4.14;100.00
75383;BME280;77049;52.132;5.426;2024-03-25T02:59:28;100733.84;;;4.13;100.00
75383;BME280;77049;52.132;5.426;2024-03-25T03:01:54;100729.66;;;4.15;100.00
75383;BME280;77049;52.132;5.426;2024-03-25T03:04:19;100729.28;;;4.17;100.00
75383;BME280;77049;52.132;5.426;2024-03-25T03:06:45;100726.25;;;4.18;100.00
75383;BME280;77049;52.132;5.426;2024-03-25T03:09:10;100728.94;;;4.15;100.00
75383;BME280;77049;52.132;5.426;2024-03-25T03:11:37;100724.78;;;4.14;100.00
75383;BME280;77049;52.132;5.426;2024-03-25T03:14:02;100726.69;;;4.13;100.00
75383;BME280;77049;52.132;5.426;2024-03-25T03:16:28;100722.91;;;4.14;100.00
75383;BME280;77049;52.132;5.426;2024-03-25T03:18:55;100725.94;;;4.13;100.00
75383;BME280;77049;52.132;5.426;2024-03-25T03:21:20;100726.34;;;4.11;100.00
75383;BME280;77049;52.132;5.426;2024-03-25T03:23:46;100730.09;;;4.10;100.00
75383;BME280;77049;52.132;5.426;2024-03-25T03:26:12;100727.91;;;4.05;100.00
75383;BME280;77049;52.132;5.426;2024-03-25T03:28:40;100722.28;;;4.03;100.00
75383;BME280;77049;52.132;5.426;2024-03-25T03:31:06;100720.75;;;4.06;100.00
75383;BME280;77049;52.132;5.426;2024-03-25T03:33:31;100718.91;;;4.02;100.00
75383;BME280;77049;52.132;5.426;2024-03-25T03:35:57;100717.81;;;4.00;100.00
75383;BME280;77049;52.132;5.426;2024-03-25T03:38:23;100715.16;;;4.00;100.00
75383;BME280;77049;52.132;5.426;2024-03-25T03:40:59;100712.94;;;3.98;100.00
75383;BME280;77049;52.132;5.426;2024-03-25T03:43:26;100714.84;;;3.98;100.00
75383;BME280;77049;52.132;5.426;2024-03-25T03:45:52;100716.72;;;3.97;100.00
75383;BME280;77049;52.132;5.426;2024-03-25T03:48:17;100717.13;;;3.96;100.00
75383;BME280;77049;52.132;5.426;2024-03-25T03:50:43;100716.75;;;3.94;100.00
75383;BME280;77049;52.132;5.426;2024-03-25T03:53:09;100711.53;;;3.90;100.00
75383;BME280;77049;52.132;5.426;2024-03-25T03:55:35;100713.44;;;3.90;100.00
75383;BME280;77049;52.132;5.426;2024-03-25T03:58:01;100710.78;;;3.90;100.00
75383;BME280;77049;52.132;5.426;2024-03-25T04:00:27;100708.59;;;3.85;100.00
75383;BME280;77049;52.132;5.426;2024-03-25T04:02:53;100707.44;;;3.86;100.00
75383;BME280;77049;52.132;5.426;2024-03-25T04:05:19;100697.31;;;3.84;100.00
75383;BME280;77049;52.132;5.426;2024-03-25T04:07:46;100692.06;;;3.81;100.00
75383;BME280;77049;52.132;5.426;2024-03-25T04:10:12;100690.19;;;3.81;100.00
75383;BME280;77049;52.132;5.426;2024-03-25T04:12:39;100695.09;;;3.79;100.00
75383;BME280;77049;52.132;5.426;2024-03-25T04:15:05;100694.00;;;3.77;100.00
75383;BME280;77049;52.132;5.426;2024-03-25T04:17:31;100698.16;;;3.74;100.00
75383;BME280;77049;52.132;5.426;2024-03-25T04:19:59;100703.84;;;3.69;100.00
75383;BME280;77049;52.132;5.426;2024-03-25T04:22:26;100711.78;;;3.65;100.00
75383;BME280;77049;52.132;5.426;2024-03-25T04:24:51;100705.81;;;3.61;100.00
75383;BME280;77049;52.132;5.426;2024-03-25T04:27:17;100713.72;;;3.61;100.00
75383;BME280;77049;52.132;5.426;2024-03-25T04:29:46;100703.56;;;3.60;100.00
75383;BME280;77049;52.132;5.426;2024-03-25T04:32:12;100705.13;;;3.57;100.00
75383;BME280;77049;52.132;5.426;2024-03-25T04:34:37;100703.63;;;3.56;100.00
75383;BME280;77049;52.132;5.426;2024-03-25T04:37:03;100699.13;;;3.57;100.00
75383;BME280;77049;52.132;5.426;2024-03-25T04:39:30;100710.41;;;3.57;100.00
75383;BME280;77049;52.132;5.426;2024-03-25T04:41:56;100708.91;;;3.56;100.00
75383;BME280;77049;52.132;5.426;2024-03-25T04:44:22;100704.00;;;3.58;100.00
75383;BME280;77049;52.132;5.426;2024-03-25T04:46:48;100701.38;;;3.58;100.00
75383;BME280;77049;52.132;5.426;2024-03-25T04:49:14;100706.28;;;3.56;100.00
75383;BME280;77049;52.132;5.426;2024-03-25T04:51:39;100694.63;;;3.54;100.00
75383;BME280;77049;52.132;5.426;2024-03-25T04:54:06;100704.06;;;3.51;100.00
75383;BME280;77049;52.132;5.426;2024-03-25T04:56:32;100707.47;;;3.48;100.00
75383;BME280;77049;52.132;5.426;2024-03-25T04:58:57;100709.00;;;3.46;100.00
75383;BME280;77049;52.132;5.426;2024-03-25T05:01:27;100703.03;;;3.42;100.00
75383;BME280;77049;52.132;5.426;2024-03-25T05:03:53;100705.28;;;3.40;100.00
75383;BME280;77049;52.132;5.426;2024-03-25T05:06:19;100706.44;;;3.39;100.00
75383;BME280;77049;52.132;5.426;2024-03-25T05:08:45;100716.59;;;3.37;100.00
75383;BME280;77049;52.132;5.426;2024-03-25T05:11:13;100711.72;;;3.35;100.00
75383;BME280;77049;52.132;5.426;2024-03-25T05:13:39;100708.72;;;3.33;100.00
75383;BME280;77049;52.132;5.426;2024-03-25T05:16:04;100719.66;;;3.31;100.00
75383;BME280;77049;52.132;5.426;2024-03-25T05:18:31;100718.16;;;3.30;100.00
75383;BME280;77049;52.132;5.426;2024-03-25T05:20:56;100724.91;;;3.31;100.00
75383;BME280;77049;52.132;5.426;2024-03-25T05:23:22;100727.56;;;3.28;100.00
75383;BME280;77049;52.132;5.426;2024-03-25T05:25:48;100727.22;;;3.26;100.00
75383;BME280;77049;52.132;5.426;2024-03-25T05:28:13;100725.69;;;3.28;100.00
75383;BME280;77049;52.132;5.426;2024-03-25T05:30:39;100738.47;;;3.26;100.00
75383;BME280;77049;52.132;5.426;2024-03-25T05:33:05;100738.88;;;3.25;100.00
75383;BME280;77049;52.132;5.426;2024-03-25T05:35:31;100735.84;;;3.26;100.00
75383;BME280;77049;52.132;5.426;2024-03-25T05:37:59;100734.00;;;3.23;100.00
75383;BME280;77049;52.132;5.426;2024-03-25T05:40:24;100746.75;;;3.25;100.00
75383;BME280;77049;52.132;5.426;2024-03-25T05:42:52;100736.97;;;3.25;100.00
75383;BME280;77049;52.132;5.426;2024-03-25T05:45:17;100738.84;;;3.28;100.00
75383;BME280;77049;52.132;5.426;2024-03-25T05:47:43;100733.97;;;3.27;100.00
75383;BME280;77049;52.132;5.426;2024-03-25T05:50:08;100729.09;;;3.25;100.00
75383;BME280;77049;52.132;5.426;2024-03-25T05:52:34;100733.22;;;3.26;100.00
75383;BME280;77049;52.132;5.426;2024-03-25T05:55:01;100727.97;;;3.26;100.00
75383;BME280;77049;52.132;5.426;2024-03-25T05:57:26;100738.09;;;3.28;100.00
75383;BME280;77049;52.132;5.426;2024-03-25T05:59:52;100727.25;;;3.22;100.00
75383;BME280;77049;52.132;5.426;2024-03-25T06:02:17;100734.75;;;3.24;100.00
75383;BME280;77049;52.132;5.426;2024-03-25T06:04:43;100735.47;;;3.28;100.00
75383;BME280;77049;52.132;5.426;2024-03-25T06:07:08;100732.44;;;3.29;100.00
75383;BME280;77049;52.132;5.426;2024-03-25T06:09:35;100729.03;;;3.32;100.00
75383;BME280;77049;52.132;5.426;2024-03-25T06:12:01;100729.00;;;3.36;100.00
75383;BME280;77049;52.132;5.426;2024-03-25T06:14:27;100723.78;;;3.32;100.00
75383;BME280;77049;52.132;5.426;2024-03-25T06:16:53;100724.50;;;3.37;100.00
75383;BME280;77049;52.132;5.426;2024-03-25T06:19:18;100722.97;;;3.39;100.00
75383;BME280;77049;52.132;5.426;2024-03-25T06:21:44;100729.34;;;3.42;100.00
75383;BME280;77049;52.132;5.426;2024-03-25T06:24:10;100722.94;;;3.43;100.00
75383;BME280;77049;52.132;5.426;2024-03-25T06:26:36;100723.28;;;3.45;100.00
75383;BME280;77049;52.132;5.426;2024-03-25T06:29:02;100722.16;;;3.46;100.00
75383;BME280;77049;52.132;5.426;2024-03-25T06:31:28;100714.97;;;3.50;100.00
75383;BME280;77049;52.132;5.426;2024-03-25T06:34:12;100716.06;;;3.56;100.00
75383;BME280;77049;52.132;5.426;2024-03-25T06:36:47;100711.16;;;3.58;100.00
75383;BME280;77049;52.132;5.426;2024-03-25T06:39:14;100712.94;;;3.64;100.00
75383;BME280;77049;52.132;5.426;2024-03-25T06:41:40;100711.75;;;3.69;100.00
75383;BME280;77049;52.132;5.426;2024-03-25T06:44:06;100715.09;;;3.73;100.00
75383;BME280;77049;52.132;5.426;2024-03-25T06:46:32;100717.69;;;3.77;100.00
75383;BME280;77049;52.132;5.426;2024-03-25T06:48:58;100718.06;;;3.79;100.00
75383;BME280;77049;52.132;5.426;2024-03-25T06:51:24;100714.25;;;3.83;100.00
75383;BME280;77049;52.132;5.426;2024-03-25T06:53:50;100717.97;;;3.86;100.00
75383;BME280;77049;52.132;5.426;2024-03-25T06:56:17;100716.81;;;3.90;100.00
75383;BME280;77049;52.132;5.426;2024-03-25T06:58:43;100719.75;;;3.96;100.00
75383;BME280;77049;52.132;5.426;2024-03-25T07:01:10;100715.91;;;4.00;100.00
75383;BME280;77049;52.132;5.426;2024-03-25T07:03:37;100718.47;;;4.08;100.00
75383;BME280;77049;52.132;5.426;2024-03-25T07:06:04;100720.28;;;4.14;100.00
75383;BME280;77049;52.132;5.426;2024-03-25T07:08:31;100716.81;;;4.21;100.00
75383;BME280;77049;52.132;5.426;2024-03-25T07:10:57;100722.69;;;4.32;100.00
75383;BME280;77049;52.132;5.426;2024-03-25T07:13:22;100721.50;;;4.37;100.00
75383;BME280;77049;52.132;5.426;2024-03-25T07:15:50;100724.50;;;4.39;100.00
75383;BME280;77049;52.132;5.426;2024-03-25T07:18:17;100716.06;;;4.47;100.00
75383;BME280;77049;52.132;5.426;2024-03-25T07:20:43;100719.38;;;4.55;100.00
75383;BME280;77049;52.132;5.426;2024-03-25T07:23:09;100718.91;;;4.60;100.00
75383;BME280;77049;52.132;5.426;2024-03-25T07:25:36;100718.06;;;4.66;100.00
75383;BME280;77049;52.132;5.426;2024-03-25T07:28:02;100722.69;;;4.86;100.00
75383;BME280;77049;52.132;5.426;2024-03-25T07:30:28;100720.00;;;5.13;100.00
75383;BME280;77049;52.132;5.426;2024-03-25T07:32:55;100721.63;;;5.50;100.00
75383;BME280;77049;52.132;5.426;2024-03-25T07:35:20;100719.81;;;5.86;100.00
75383;BME280;77049;52.132;5.426;2024-03-25T07:37:46;100725.63;;;6.37;100.00
75383;BME280;77049;52.132;5.426;2024-03-25T07:40:12;100731.63;;;7.06;100.00
75383;BME280;77049;52.132;5.426;2024-03-25T07:42:38;100725.00;;;7.72;100.00
75383;BME280;77049;52.132;5.426;2024-03-25T07:45:05;100727.06;;;8.48;99.24
75383;BME280;77049;52.132;5.426;2024-03-25T07:47:32;100732.03;;;9.31;93.97
75383;BME280;77049;52.132;5.426;2024-03-25T07:50:00;100725.03;;;10.12;89.20
75383;BME280;77049;52.132;5.426;2024-03-25T07:52:27;100734.63;;;10.89;84.11
75383;BME280;77049;52.132;5.426;2024-03-25T07:54:53;100738.97;;;11.42;80.41
75383;BME280;77049;52.132;5.426;2024-03-25T07:57:19;100730.97;;;11.87;78.07
75383;BME280;77049;52.132;5.426;2024-03-25T07:59:47;100735.63;;;12.11;74.57
75383;BME280;77049;52.132;5.426;2024-03-25T08:02:13;100728.97;;;12.06;73.48
75383;BME280;77049;52.132;5.426;2024-03-25T08:04:39;100726.69;;;12.23;73.16
75383;BME280;77049;52.132;5.426;2024-03-25T08:07:04;100735.06;;;12.07;72.18
75383;BME280;77049;52.132;5.426;2024-03-25T08:09:30;100740.28;;;11.92;71.86
75383;BME280;77049;52.132;5.426;2024-03-25T08:11:56;100742.81;;;11.68;73.06
75383;BME280;77049;52.132;5.426;2024-03-25T08:14:23;100746.97;;;11.60;72.63
75383;BME280;77049;52.132;5.426;2024-03-25T08:16:49;100750.09;;;11.58;73.21
75383;BME280;77049;52.132;5.426;2024-03-25T08:19:16;100745.06;;;11.42;72.75
75383;BME280;77049;52.132;5.426;2024-03-25T08:21:41;100747.72;;;11.51;73.11
75383;BME280;77049;52.132;5.426;2024-03-25T08:24:07;100752.44;;;11.65;73.33
75383;BME280;77049;52.132;5.426;2024-03-25T08:26:33;100754.38;;;11.83;72.67
75383;BME280;77049;52.132;5.426;2024-03-25T08:28:59;100747.06;;;12.02;73.06
75383;BME280;77049;52.132;5.426;2024-03-25T08:31:24;100749.56;;;12.15;71.47
75383;BME280;77049;52.132;5.426;2024-03-25T08:33:50;100750.06;;;11.95;70.74
75383;BME280;77049;52.132;5.426;2024-03-25T08:36:17;100749.75;;;11.75;71.55
75383;BME280;77049;52.132;5.426;2024-03-25T08:38:44;100757.19;;;11.70;70.41
75383;BME280;77049;52.132;5.426;2024-03-25T08:41:10;100747.41;;;11.13;71.36
75383;BME280;77049;52.132;5.426;2024-03-25T08:43:36;100745.25;;;10.71;73.01
75383;BME280;77049;52.132;5.426;2024-03-25T08:46:01;100743.69;;;10.52;73.20
75383;BME280;77049;52.132;5.426;2024-03-25T08:48:29;100751.75;;;10.30;73.40
75383;BME280;77049;52.132;5.426;2024-03-25T08:50:55;100741.34;;;9.92;74.43
75383;BME280;77049;52.132;5.426;2024-03-25T08:53:21;100743.00;;;9.77;75.37
75383;BME280;77049;52.132;5.426;2024-03-25T08:55:47;100741.09;;;9.99;76.37
75383;BME280;77049;52.132;5.426;2024-03-25T08:58:14;100734.19;;;10.11;77.07
75383;BME280;77049;52.132;5.426;2024-03-25T09:00:40;100743.69;;;10.52;76.71
75383;BME280;77049;52.132;5.426;2024-03-25T09:03:06;100743.81;;;10.97;75.44
75383;BME280;77049;52.132;5.426;2024-03-25T09:05:31;100739.41;;;11.03;73.39
75383;BME280;77049;52.132;5.426;2024-03-25T09:07:57;100729.91;;;10.93;73.91
75383;BME280;77049;52.132;5.426;2024-03-25T09:10:24;100728.63;;;11.16;73.07
75383;BME280;77049;52.132;5.426;2024-03-25T09:13:09;100727.28;;;11.30;73.05
75383;BME280;77049;52.132;5.426;2024-03-25T09:15:35;100726.53;;;11.29;71.34
75383;BME280;77049;52.132;5.426;2024-03-25T09:18:01;100726.97;;;11.00;70.77
75383;BME280;77049;52.132;5.426;2024-03-25T09:20:26;100718.84;;;11.04;71.86
75383;BME280;77049;52.132;5.426;2024-03-25T09:22:52;100725.22;;;11.16;71.15
75383;BME280;77049;52.132;5.426;2024-03-25T09:25:18;100731.84;;;11.20;71.55
75383;BME280;77049;52.132;5.426;2024-03-25T09:27:48;100729.81;;;11.15;70.34
75383;BME280;77049;52.132;5.426;2024-03-25T09:30:14;100730.25;;;11.32;70.71
75383;BME280;77049;52.132;5.426;2024-03-25T09:32:41;100726.41;;;11.15;69.02
75383;BME280;77049;52.132;5.426;2024-03-25T09:35:12;100721.63;;;10.91;70.45
75383;BME280;77049;52.132;5.426;2024-03-25T09:37:37;100724.78;;;11.17;70.18
75383;BME280;77049;52.132;5.426;2024-03-25T09:40:04;100722.78;;;10.81;70.94
75383;BME280;77049;52.132;5.426;2024-03-25T09:42:36;100716.38;;;10.60;72.16
75383;BME280;77049;52.132;5.426;2024-03-25T09:45:02;100720.94;;;10.51;73.05
75383;BME280;77049;52.132;5.426;2024-03-25T09:47:30;100711.53;;;10.68;73.49
75383;BME280;77049;52.132;5.426;2024-03-25T09:49:59;100713.31;;;10.80;73.01
75383;BME280;77049;52.132;5.426;2024-03-25T09:52:24;100712.59;;;10.98;72.35
75383;BME280;77049;52.132;5.426;2024-03-25T09:54:50;100716.59;;;11.21;70.53
75383;BME280;77049;52.132;5.426;2024-03-25T09:57:17;100716.91;;;11.50;68.34
75383;BME280;77049;52.132;5.426;2024-03-25T09:59:43;100705.38;;;11.44;68.26
75383;BME280;77049;52.132;5.426;2024-03-25T10:02:11;100708.78;;;11.35;69.15
75383;BME280;77049;52.132;5.426;2024-03-25T10:04:46;100698.56;;;11.34;69.21
75383;BME280;77049;52.132;5.426;2024-03-25T10:07:21;100691.31;;;11.34;68.82
75383;BME280;77049;52.132;5.426;2024-03-25T10:09:49;100688.78;;;11.31;68.08
75383;BME280;77049;52.132;5.426;2024-03-25T10:12:15;100676.50;;;11.43;66.57
75383;BME280;77049;52.132;5.426;2024-03-25T10:14:42;100682.84;;;11.45;66.43
75383;BME280;77049;52.132;5.426;2024-03-25T10:17:09;100675.75;;;11.33;66.63
75383;BME280;77049;52.132;5.426;2024-03-25T10:19:36;100672.06;;;11.12;67.66
75383;BME280;77049;52.132;5.426;2024-03-25T10:22:05;100678.72;;;10.89;67.47
75383;BME280;77049;52.132;5.426;2024-03-25T10:24:44;100677.06;;;10.83;69.64
75383;BME280;77049;52.132;5.426;2024-03-25T10:27:21;100676.47;;;10.69;69.60
75383;BME280;77049;52.132;5.426;2024-03-25T10:29:54;100667.91;;;10.75;70.81
75383;BME280;77049;52.132;5.426;2024-03-25T10:32:23;100666.28;;;10.77;70.31
75383;BME280;77049;52.132;5.426;2024-03-25T10:34:50;100667.16;;;10.92;70.64
75383;BME280;77049;52.132;5.426;2024-03-25T10:37:17;100662.59;;;11.11;69.04
75383;BME280;77049;52.132;5.426;2024-03-25T10:39:48;100667.03;;;11.05;68.26
75383;BME280;77049;52.132;5.426;2024-03-25T10:42:19;100664.53;;;11.01;68.27
75383;BME280;77049;52.132;5.426;2024-03-25T10:44:45;100657.25;;;11.02;68.89
75383;BME280;77049;52.132;5.426;2024-03-25T10:47:19;100660.97;;;11.05;67.16
75383;BME280;77049;52.132;5.426;2024-03-25T10:49:58;100645.88;;;10.92;67.67
75383;BME280;77049;52.132;5.426;2024-03-25T10:52:26;100647.22;;;10.79;67.07
75383;BME280;77049;52.132;5.426;2024-03-25T10:54:54;100642.75;;;10.76;68.19
75383;BME280;77049;52.132;5.426;2024-03-25T10:57:20;100643.94;;;11.02;66.34
75383;BME280;77049;52.132;5.426;2024-03-25T10:59:48;100629.84;;;11.29;67.14
75383;BME280;77049;52.132;5.426;2024-03-25T11:02:15;100637.25;;;11.43;64.36
75383;BME280;77049;52.132;5.426;2024-03-25T11:04:43;100631.78;;;11.38;64.78
75383;BME280;77049;52.132;5.426;2024-03-25T11:07:11;100633.09;;;11.42;64.75
75383;BME280;77049;52.132;5.426;2024-03-25T11:09:39;100625.09;;;11.51;65.71
75383;BME280;77049;52.132;5.426;2024-03-25T11:12:06;100625.22;;;11.57;63.81
75383;BME280;77049;52.132;5.426;2024-03-25T11:14:33;100623.19;;;11.43;64.84
75383;BME280;77049;52.132;5.426;2024-03-25T11:17:00;100628.50;;;11.52;63.86
75383;BME280;77049;52.132;5.426;2024-03-25T11:19:27;100616.00;;;11.67;63.00
75383;BME280;77049;52.132;5.426;2024-03-25T11:21:53;100614.44;;;11.51;63.16
75383;BME280;77049;52.132;5.426;2024-03-25T11:24:28;100623.47;;;11.35;62.79
75383;BME280;77049;52.132;5.426;2024-03-25T11:26:56;100605.41;;;11.49;65.15
75383;BME280;77049;52.132;5.426;2024-03-25T11:29:22;100601.84;;;11.52;63.94
75383;BME280;77049;52.132;5.426;2024-03-25T11:31:52;100604.31;;;11.64;62.84
75383;BME280;77049;52.132;5.426;2024-03-25T11:34:19;100608.13;;;11.82;62.49
75383;BME280;77049;52.132;5.426;2024-03-25T11:36:44;100605.00;;;11.92;63.48
75383;BME280;77049;52.132;5.426;2024-03-25T11:39:16;100608.28;;;12.11;61.49
75383;BME280;77049;52.132;5.426;2024-03-25T11:41:43;100598.94;;;12.16;61.47
75383;BME280;77049;52.132;5.426;2024-03-25T11:44:12;100590.50;;;12.08;60.65
75383;BME280;77049;52.132;5.426;2024-03-25T11:46:41;100587.25;;;11.71;60.60
75383;BME280;77049;52.132;5.426;2024-03-25T11:49:11;100580.69;;;11.48;60.97
75383;BME280;77049;52.132;5.426;2024-03-25T11:51:37;100582.69;;;11.62;61.01
75383;BME280;77049;52.132;5.426;2024-03-25T11:54:06;100584.13;;;11.82;61.59
75383;BME280;77049;52.132;5.426;2024-03-25T11:56:32;100575.66;;;11.92;61.10
75383;BME280;77049;52.132;5.426;2024-03-25T11:58:59;100568.41;;;11.84;61.19
75383;BME280;77049;52.132;5.426;2024-03-25T12:01:26;100575.53;;;11.87;59.31
75383;BME280;77049;52.132;5.426;2024-03-25T12:03:51;100562.03;;;11.90;60.00
75383;BME280;77049;52.132;5.426;2024-03-25T12:06:17;100558.50;;;11.84;60.64
75383;BME280;77049;52.132;5.426;2024-03-25T12:08:43;100548.56;;;11.76;60.04
75383;BME280;77049;52.132;5.426;2024-03-25T12:11:27;100551.47;;;11.54;61.26
75383;BME280;77049;52.132;5.426;2024-03-25T12:13:53;100541.06;;;11.65;59.67
75383;BME280;77049;52.132;5.426;2024-03-25T12:16:20;100535.28;;;11.66;60.05
75383;BME280;77049;52.132;5.426;2024-03-25T12:18:46;100541.09;;;11.56;59.70
75383;BME280;77049;52.132;5.426;2024-03-25T12:21:12;100543.09;;;11.70;60.29
75383;BME280;77049;52.132;5.426;2024-03-25T12:23:37;100529.78;;;11.70;59.92
75383;BME280;77049;52.132;5.426;2024-03-25T12:26:04;100531.53;;;11.82;58.75
75383;BME280;77049;52.132;5.426;2024-03-25T12:28:34;100526.38;;;11.69;58.32
75383;BME280;77049;52.132;5.426;2024-03-25T12:31:02;100512.75;;;11.67;61.36
75383;BME280;77049;52.132;5.426;2024-03-25T12:33:28;100514.00;;;11.57;58.90
75383;BME280;77049;52.132;5.426;2024-03-25T12:35:53;100514.38;;;11.65;57.97
75383;BME280;77049;52.132;5.426;2024-03-25T12:38:26;100513.03;;;11.79;56.96
75383;BME280;77049;52.132;5.426;2024-03-25T12:40:53;100518.78;;;11.86;56.88
75383;BME280;77049;52.132;5.426;2024-03-25T12:43:19;100518.44;;;11.93;54.39
75383;BME280;77049;52.132;5.426;2024-03-25T12:45:45;100512.38;;;11.93;55.35
75383;BME280;77049;52.132;5.426;2024-03-25T12:48:11;100512.75;;;12.00;54.09